OISA  Abadeh  Airport

Abadeh, Iran

Add Bookmark
ICAO OISA
Type Airport
Status Operational
Latitude
31° 10' 0" N
31.166668
Longitude
52° 40' 0" E
52.666668
Local (DST + 5) UTC (GMT + 4)
Aug 2, 2015 10:46 Aug 2, 2015 06:16
Sunrise-Sunset Local UTC
Begin Civil Twilight 05:49 01:19
Sunrise 06:15 01:45
Sunset 07:55 15:25
End Civil Twilight 08:21 15:51
VFR
VFR
MVFR
MVFR
IFR
IFR
LIFR
LIFR
Unknown
Unavailable

Current Weather

METAR Observed VFR
OISA 012155Z 00000KT CAVOK 22/M01 Q1022 Sat, Aug 1, 2015 @ 21:55 UTC
(8 Hours, 21 Minutes ago)
Visual Flight Rules
Wind Visibility Conditions
Calm 10 km or more
  • No significant weather
Temperatures Readings Precipitation
Current Temp
22°C
72°F
Dewpoint
-1°C
30°F
Humidity 22%
Altimeter 30.18" Hg
Sea Level Pressure 1,022 mb
Field Elevation
2,004 m
6,575 ft
None Recorded
-
-

CheckWX.com is intended as a tool to help pilots better visualize weather data. It is not intended as a substitute for an official weather briefing obtained from a Flight Service Station. CheckWX.com does not meet the FAA requirements for an official pre-flight weather briefing. Therefore, it's important that pilots still call and obtain an official FSS pre-flight weather briefing.

© 2007-2015 CheckWX.com
06:16:40 UTC